Terminal Aerodrome Forecast
Issued by NWS

Home | Current Version | Previous Version | Text Only | Print | Product List | Glossary On
Versions: 1 2 3 4 5 6 7 8 9 10 11 12 13 14
739
FTUS42 KTBW 191120
TAFRSW
TAF
KRSW 191120Z 1912/2012 00000KT 6SM BR SCT250
      TEMPO 1912/1914 3SM BR
     FM191400 15005KT P6SM SCT030 SCT250
     FM191900 23008KT P6SM SCT040 SCT250
     FM200500 19002KT P6SM SCT040 SCT250=

USA.gov is the U.S. government's official web portal to all federal, state and local government web resources and services.